Time;durP1;ratioP1;P1;durP2;ratioP2;P2;SDS_P1;SDS_P2;PMS_P1;PMS_P2;Temp;Humidity;BMP_temperature;BMP_pressure;BME280_temperature;BME280_humidity;BME280_pressure;Samples;Min_cycle;Max_cycle;Signal;HPM_P1;HPM_P2
2022/07/21 00:05:18;;;;;;;7;10.4;;;;;;;17.6;100;98870;;;;
2022/07/21 00:16:19;;;;;;;5.8;7.9;;;;;;;17.6;100;98870;;;;
2022/07/21 00:26:18;;;;;;;5.8;7.9;;;;;;;17.5;100;98880;;;;
2022/07/21 00:37:18;;;;;;;5.8;7.9;;;;;;;17.4;100;98880;;;;
2022/07/21 00:47:18;;;;;;;5.3;10.2;;;;;;;17.2;100;98870;;;;
2022/07/21 00:58:19;;;;;;;5.3;10.2;;;;;;;17.1;100;98880;;;;
2022/07/21 01:08:18;;;;;;;5.3;10.5;;;;;;;17;100;98880;;;;
2022/07/21 01:18:19;;;;;;;5.3;10.5;;;;;;;16.9;100;98880;;;;
2022/07/21 01:28:18;;;;;;;5.3;10.5;;;;;;;16.6;100;98880;;;;
2022/07/21 01:49:18;;;;;;;6.1;9;;;;;;;16.4;100;98890;;;;
2022/07/21 02:00:19;;;;;;;6.1;9;;;;;;;16.2;100;98880;;;;
2022/07/21 02:10:18;;;;;;;6.5;9.9;;;;;;;16.1;100;98870;;;;
2022/07/21 02:20:18;;;;;;;6.5;9.9;;;;;;;16.1;100;98870;;;;
2022/07/21 02:31:19;;;;;;;6.5;9.9;;;;;;;15.9;100;98880;;;;
2022/07/21 02:42:19;;;;;;;6.6;9.2;;;;;;;15.8;100;98870;;;;
2022/07/21 02:53:19;;;;;;;6.6;9.2;;;;;;;15.7;100;98860;;;;
2022/07/21 03:04:19;;;;;;;6.6;9.2;;;;;;;15.8;100;98860;;;;
2022/07/21 03:15:18;;;;;;;6.8;9.8;;;;;;;15.8;100;98850;;;;
2022/07/21 03:25:18;;;;;;;6.8;9.8;;;;;;;15.9;100;98850;;;;
2022/07/21 03:36:19;;;;;;;6.8;9.8;;;;;;;16;100;98860;;;;
2022/07/21 03:47:19;;;;;;;7.1;9.8;;;;;;;16.4;100;98850;;;;
2022/07/21 03:57:18;;;;;;;7.1;9.8;;;;;;;16.7;100;98860;;;;
2022/07/21 04:08:18;;;;;;;6.7;12;;;;;;;16.8;100;98860;;;;
2022/07/21 04:18:18;;;;;;;6.7;12;;;;;;;17.1;100;98870;;;;
2022/07/21 04:29:19;;;;;;;6.7;12;;;;;;;17.5;100;98880;;;;
2022/07/21 04:40:18;;;;;;;7.5;11.1;;;;;;;18;100;98880;;;;
2022/07/21 04:50:18;;;;;;;7.5;11.1;;;;;;;18.6;100;98880;;;;
2022/07/21 05:01:19;;;;;;;7.5;11.1;;;;;;;19;100;98870;;;;
2022/07/21 05:11:19;;;;;;;7.8;13.9;;;;;;;19.5;100;98870;;;;
2022/07/21 05:22:19;;;;;;;7.8;13.9;;;;;;;19.9;100;98880;;;;
2022/07/21 05:33:19;;;;;;;7.8;13.9;;;;;;;20.2;100;98890;;;;
2022/07/21 05:43:19;;;;;;;7.6;11.3;;;;;;;20.6;100;98900;;;;
2022/07/21 05:54:19;;;;;;;7.6;11.3;;;;;;;20.7;100;98900;;;;
2022/07/21 06:05:19;;;;;;;7.6;11.3;;;;;;;21.2;100;98910;;;;
2022/07/21 06:15:20;;;;;;;8.7;16.9;;;;;;;21.6;100;98910;;;;
2022/07/21 06:26:19;;;;;;;8.7;16.9;;;;;;;21.8;100;98910;;;;
2022/07/21 06:37:19;;;;;;;8.7;16.9;;;;;;;22.3;100;98930;;;;
2022/07/21 06:47:19;;;;;;;8.1;13.3;;;;;;;22.9;100;98920;;;;
2022/07/21 06:58:19;;;;;;;8.1;13.3;;;;;;;23.1;100;98920;;;;
2022/07/21 07:08:19;;;;;;;7.4;11.8;;;;;;;23.7;100;98930;;;;
2022/07/21 07:19:19;;;;;;;7.4;11.8;;;;;;;24.1;100;98930;;;;
2022/07/21 07:30:19;;;;;;;7.4;11.8;;;;;;;24.5;100;98930;;;;
2022/07/21 07:40:19;;;;;;;6.2;12.3;;;;;;;24.8;100;98950;;;;
2022/07/21 07:51:19;;;;;;;6.2;12.3;;;;;;;25.4;100;98950;;;;
2022/07/21 08:02:19;;;;;;;6.2;12.3;;;;;;;25.6;100;98960;;;;
2022/07/21 08:12:19;;;;;;;6.3;12;;;;;;;26.3;100;98960;;;;
2022/07/21 08:23:19;;;;;;;6.3;12;;;;;;;26.6;100;98960;;;;
2022/07/21 08:34:19;;;;;;;6.3;12;;;;;;;27;100;98970;;;;
2022/07/21 08:44:19;;;;;;;6;10.7;;;;;;;27;100;98960;;;;
2022/07/21 08:55:19;;;;;;;6;10.7;;;;;;;27.2;100;98950;;;;
2022/07/21 09:05:19;;;;;;;6;10.7;;;;;;;27.5;100;98950;;;;
2022/07/21 09:15:19;;;;;;;5.4;9.3;;;;;;;27.6;100;98940;;;;
2022/07/21 09:25:19;;;;;;;5.4;9.3;;;;;;;28;99.9;98930;;;;
2022/07/21 09:36:19;;;;;;;5.4;9.3;;;;;;;28.1;96.2;98920;;;;
2022/07/21 09:46:19;;;;;;;5.8;8.9;;;;;;;28.6;85.8;98920;;;;
2022/07/21 09:57:19;;;;;;;5.8;8.9;;;;;;;28.7;88;98930;;;;
2022/07/21 10:07:19;;;;;;;5.8;8.9;;;;;;;29;86.7;98920;;;;
2022/07/21 10:17:19;;;;;;;3.8;6.3;;;;;;;29.1;83.2;98920;;;;
2022/07/21 10:28:20;;;;;;;3.8;6.3;;;;;;;29.4;81;98920;;;;
2022/07/21 10:39:19;;;;;;;4.4;8.5;;;;;;;29.3;86.8;98910;;;;
2022/07/21 10:50:21;;;;;;;4.4;8.5;;;;;;;29.6;86.7;98910;;;;
2022/07/21 11:00:19;;;;;;;4.4;8.5;;;;;;;29.8;83.7;98890;;;;
2022/07/21 11:10:19;;;;;;;4.6;8.6;;;;;;;30;82.5;98890;;;;
2022/07/21 11:21:19;;;;;;;4.6;8.6;;;;;;;29.7;73.6;98900;;;;
2022/07/21 11:31:21;;;;;;;4.6;8.6;;;;;;;30;75.5;98890;;;;
2022/07/21 11:41:19;;;;;;;3.7;7.7;;;;;;;30.3;74.8;98890;;;;
2022/07/21 11:51:19;;;;;;;3.7;7.7;;;;;;;30.4;71.9;98890;;;;
2022/07/21 12:01:20;;;;;;;3.7;7.7;;;;;;;30.1;74.1;98880;;;;
2022/07/21 12:12:19;;;;;;;3.6;7.3;;;;;;;30.6;75.4;98860;;;;
2022/07/21 12:22:19;;;;;;;3.6;7.3;;;;;;;30.7;71.2;98870;;;;
2022/07/21 12:33:20;;;;;;;3.6;7.3;;;;;;;30.6;70.6;98860;;;;
2022/07/21 12:44:20;;;;;;;3.8;7.2;;;;;;;30.9;70.8;98850;;;;
2022/07/21 12:54:19;;;;;;;3.8;7.2;;;;;;;31.2;69.1;98850;;;;
2022/07/21 13:05:19;;;;;;;3.8;7.2;;;;;;;31.1;71.5;98840;;;;
2022/07/21 13:16:19;;;;;;;3.5;7.3;;;;;;;31.2;71.2;98820;;;;
2022/07/21 13:27:19;;;;;;;3.5;7.3;;;;;;;31.4;65.8;98820;;;;
2022/07/21 13:37:19;;;;;;;3.5;7.3;;;;;;;31.6;65.5;98810;;;;
2022/07/21 13:48:19;;;;;;;3.1;8.2;;;;;;;31.9;67.4;98810;;;;
2022/07/21 13:59:19;;;;;;;3.1;8.2;;;;;;;31.5;64.1;98790;;;;
2022/07/21 14:09:19;;;;;;;3.2;7.9;;;;;;;32;64.9;98780;;;;
2022/07/21 14:20:19;;;;;;;3.2;7.9;;;;;;;32.3;63.1;98790;;;;
2022/07/21 14:30:19;;;;;;;3.2;7.9;;;;;;;32.2;62.1;98770;;;;
2022/07/21 14:41:19;;;;;;;3;11.4;;;;;;;32.6;61.7;98760;;;;
2022/07/21 14:52:20;;;;;;;3;11.4;;;;;;;32.4;63.6;98750;;;;
2022/07/21 15:03:19;;;;;;;3;11.4;;;;;;;33;61.5;98750;;;;
2022/07/21 15:13:19;;;;;;;2.7;5.4;;;;;;;33.2;59.5;98740;;;;
2022/07/21 15:24:19;;;;;;;2.7;5.4;;;;;;;35.3;52.5;98740;;;;
2022/07/21 15:35:19;;;;;;;2.7;5.4;;;;;;;37.4;47.4;98730;;;;
2022/07/21 15:46:19;;;;;;;3;7.8;;;;;;;38.7;45.3;98730;;;;
2022/07/21 15:57:19;;;;;;;3;7.8;;;;;;;38.2;45.2;98720;;;;
2022/07/21 16:07:19;;;;;;;3;7.8;;;;;;;38.2;45.7;98720;;;;
2022/07/21 16:17:19;;;;;;;3.3;10.7;;;;;;;37.9;46.1;98720;;;;
2022/07/21 16:28:19;;;;;;;3.3;10.7;;;;;;;38;45.2;98720;;;;
2022/07/21 16:39:19;;;;;;;;;;;;;;;37;;;;;;
2022/07/21 16:50:19;;;;;;;3.1;6.9;;;;;;;37.8;43.4;98710;;;;
2022/07/21 17:00:19;;;;;;;3.1;6.9;;;;;;;37.9;45.1;98700;;;;
2022/07/21 17:11:19;;;;;;;2.8;6.1;;;;;;;37.2;46.4;98680;;;;
2022/07/21 17:21:19;;;;;;;2.8;6.1;;;;;;;35.9;48.3;98680;;;;
2022/07/21 17:32:19;;;;;;;2.8;6.1;;;;;;;33.9;51.4;98670;;;;
2022/07/21 17:42:20;;;;;;;2.7;7.6;;;;;;;31.9;58.8;98660;;;;
2022/07/21 17:53:19;;;;;;;2.7;7.6;;;;;;;31.5;60.3;98650;;;;
2022/07/21 18:03:19;;;;;;;2.7;7.6;;;;;;;30.3;65.2;98650;;;;
2022/07/21 18:14:19;;;;;;;2.7;9.6;;;;;;;28.4;72.3;98640;;;;
2022/07/21 18:24:19;;;;;;;2.7;9.6;;;;;;;27.4;75.2;98620;;;;
2022/07/21 18:35:19;;;;;;;2.7;9.6;;;;;;;26.7;75.7;98620;;;;
2022/07/21 18:46:19;;;;;;;3;6.7;;;;;;;25.8;82.8;98620;;;;
2022/07/21 18:56:19;;;;;;;3;6.7;;;;;;;25.2;82.9;98620;;;;
2022/07/21 19:06:19;;;;;;;3;6.7;;;;;;;24.9;83.6;98630;;;;
2022/07/21 19:16:19;;;;;;;3.2;10.4;;;;;;;24.5;84.9;98630;;;;
2022/07/21 19:27:19;;;;;;;3.2;10.4;;;;;;;24.1;87.7;98630;;;;
2022/07/21 19:37:19;;;;;;;3.2;10.4;;;;;;;23.6;87.1;98640;;;;
2022/07/21 19:48:19;;;;;;;5.5;11;;;;;;;23.1;88.8;98640;;;;
2022/07/21 19:59:20;;;;;;;5.5;11;;;;;;;22.7;92.8;98630;;;;
2022/07/21 20:09:19;;;;;;;5.5;11;;;;;;;22.5;92.4;98620;;;;
2022/07/21 20:20:19;;;;;;;5.2;9.2;;;;;;;22.3;94.6;98620;;;;
2022/07/21 20:30:19;;;;;;;5.2;9.2;;;;;;;22.1;92.9;98630;;;;
2022/07/21 20:41:19;;;;;;;3.8;9;;;;;;;21.7;93.8;98630;;;;
2022/07/21 20:51:19;;;;;;;3.8;9;;;;;;;21.4;98;98630;;;;
2022/07/21 21:02:19;;;;;;;3.8;9;;;;;;;21.1;100;98620;;;;
2022/07/21 21:13:19;;;;;;;3.7;6.6;;;;;;;21.3;100;98620;;;;
2022/07/21 21:23:19;;;;;;;3.7;6.6;;;;;;;21;100;98620;;;;
2022/07/21 21:34:19;;;;;;;3.7;6.6;;;;;;;20.8;100;98610;;;;
2022/07/21 21:44:19;;;;;;;3.8;6.5;;;;;;;21;100;98610;;;;
2022/07/21 21:54:21;;;;;;;3.8;6.5;;;;;;;20.7;100;98620;;;;
2022/07/21 22:05:19;;;;;;;3.8;6.5;;;;;;;20.2;100;98610;;;;
2022/07/21 22:15:19;;;;;;;4.2;7.1;;;;;;;20;100;98610;;;;
2022/07/21 22:26:19;;;;;;;4.2;7.1;;;;;;;19.8;100;98610;;;;
2022/07/21 22:36:19;;;;;;;4.2;7.1;;;;;;;19.5;100;98620;;;;
2022/07/21 22:47:19;;;;;;;4;8.1;;;;;;;19.2;100;98620;;;;
2022/07/21 22:57:19;;;;;;;4;8.1;;;;;;;19;100;98610;;;;
2022/07/21 23:07:19;;;;;;;4;8.1;;;;;;;18.8;100;98620;;;;
2022/07/21 23:17:19;;;;;;;4.8;12;;;;;;;18.7;100;98610;;;;
2022/07/21 23:28:19;;;;;;;4.8;12;;;;;;;18.3;100;98610;;;;
2022/07/21 23:38:19;;;;;;;4.8;12;;;;;;;18.3;100;98600;;;;
2022/07/21 23:49:20;;;;;;;4.8;10.3;;;;;;;18.3;100;98590;;;;
